sensor_id;sensor_type;location;lat;lon;timestamp;P1;durP1;ratioP1;P2;durP2;ratioP2
68377;SDS011;55322;48.146;11.516;2023-06-26T00:01:28;9.40;;;5.03;;
68377;SDS011;55322;48.146;11.516;2023-06-26T00:03:54;11.25;;;5.68;;
68377;SDS011;55322;48.146;11.516;2023-06-26T00:06:20;10.33;;;5.40;;
68377;SDS011;55322;48.146;11.516;2023-06-26T00:08:45;9.98;;;5.57;;
68377;SDS011;55322;48.146;11.516;2023-06-26T00:11:11;10.97;;;5.60;;
68377;SDS011;55322;48.146;11.516;2023-06-26T00:13:36;10.10;;;5.93;;
68377;SDS011;55322;48.146;11.516;2023-06-26T00:16:01;10.80;;;5.27;;
68377;SDS011;55322;48.146;11.516;2023-06-26T00:18:28;10.73;;;6.15;;
68377;SDS011;55322;48.146;11.516;2023-06-26T00:20:54;11.77;;;5.77;;
68377;SDS011;55322;48.146;11.516;2023-06-26T00:23:19;14.30;;;6.40;;
68377;SDS011;55322;48.146;11.516;2023-06-26T00:25:44;13.03;;;6.00;;
68377;SDS011;55322;48.146;11.516;2023-06-26T00:28:10;11.17;;;5.77;;
68377;SDS011;55322;48.146;11.516;2023-06-26T00:30:35;12.13;;;5.40;;
68377;SDS011;55322;48.146;11.516;2023-06-26T00:33:01;11.07;;;5.57;;
68377;SDS011;55322;48.146;11.516;2023-06-26T00:35:26;10.88;;;5.95;;
68377;SDS011;55322;48.146;11.516;2023-06-26T00:37:51;10.73;;;5.90;;
68377;SDS011;55322;48.146;11.516;2023-06-26T00:40:17;10.43;;;5.80;;
68377;SDS011;55322;48.146;11.516;2023-06-26T00:42:42;12.73;;;6.50;;
68377;SDS011;55322;48.146;11.516;2023-06-26T00:45:07;11.60;;;5.73;;
68377;SDS011;55322;48.146;11.516;2023-06-26T00:47:33;10.93;;;5.90;;
68377;SDS011;55322;48.146;11.516;2023-06-26T00:49:58;11.37;;;6.10;;
68377;SDS011;55322;48.146;11.516;2023-06-26T00:52:24;15.13;;;6.20;;
68377;SDS011;55322;48.146;11.516;2023-06-26T00:54:49;12.07;;;5.73;;
68377;SDS011;55322;48.146;11.516;2023-06-26T00:57:16;11.77;;;5.60;;
68377;SDS011;55322;48.146;11.516;2023-06-26T00:59:43;10.05;;;5.28;;
68377;SDS011;55322;48.146;11.516;2023-06-26T01:02:08;11.00;;;5.90;;
68377;SDS011;55322;48.146;11.516;2023-06-26T01:04:34;12.27;;;5.20;;
68377;SDS011;55322;48.146;11.516;2023-06-26T01:07:00;11.40;;;5.37;;
68377;SDS011;55322;48.146;11.516;2023-06-26T01:09:27;10.65;;;5.40;;
68377;SDS011;55322;48.146;11.516;2023-06-26T01:11:52;9.80;;;5.30;;
68377;SDS011;55322;48.146;11.516;2023-06-26T01:14:18;9.90;;;5.00;;
68377;SDS011;55322;48.146;11.516;2023-06-26T01:16:43;10.93;;;5.57;;
68377;SDS011;55322;48.146;11.516;2023-06-26T01:19:13;10.18;;;5.10;;
68377;SDS011;55322;48.146;11.516;2023-06-26T01:21:50;11.00;;;5.07;;
68377;SDS011;55322;48.146;11.516;2023-06-26T01:24:22;10.10;;;5.40;;
68377;SDS011;55322;48.146;11.516;2023-06-26T01:26:52;10.65;;;5.40;;
68377;SDS011;55322;48.146;11.516;2023-06-26T01:29:18;10.63;;;5.05;;
68377;SDS011;55322;48.146;11.516;2023-06-26T01:31:44;10.38;;;5.00;;
68377;SDS011;55322;48.146;11.516;2023-06-26T01:34:17;10.57;;;5.00;;
68377;SDS011;55322;48.146;11.516;2023-06-26T01:36:44;9.80;;;4.80;;
68377;SDS011;55322;48.146;11.516;2023-06-26T01:39:10;9.60;;;5.40;;
68377;SDS011;55322;48.146;11.516;2023-06-26T01:41:36;10.17;;;5.10;;
68377;SDS011;55322;48.146;11.516;2023-06-26T01:52:27;10.27;;;5.30;;
68377;SDS011;55322;48.146;11.516;2023-06-26T01:57:56;10.25;;;5.05;;
68377;SDS011;55322;48.146;11.516;2023-06-26T02:00:22;9.70;;;4.70;;
68377;SDS011;55322;48.146;11.516;2023-06-26T02:02:48;10.50;;;4.63;;
68377;SDS011;55322;48.146;11.516;2023-06-26T02:05:14;9.53;;;4.73;;
68377;SDS011;55322;48.146;11.516;2023-06-26T02:07:39;9.73;;;5.13;;
68377;SDS011;55322;48.146;11.516;2023-06-26T02:10:05;9.00;;;4.60;;
68377;SDS011;55322;48.146;11.516;2023-06-26T02:12:33;9.60;;;4.47;;
68377;SDS011;55322;48.146;11.516;2023-06-26T02:15:00;10.60;;;4.78;;
68377;SDS011;55322;48.146;11.516;2023-06-26T02:17:26;10.33;;;5.27;;
68377;SDS011;55322;48.146;11.516;2023-06-26T02:19:51;9.17;;;4.73;;
68377;SDS011;55322;48.146;11.516;2023-06-26T02:22:16;9.87;;;4.53;;
68377;SDS011;55322;48.146;11.516;2023-06-26T02:24:42;10.27;;;5.07;;
68377;SDS011;55322;48.146;11.516;2023-06-26T02:27:08;10.07;;;4.80;;
68377;SDS011;55322;48.146;11.516;2023-06-26T02:29:34;9.70;;;4.83;;
68377;SDS011;55322;48.146;11.516;2023-06-26T02:32:00;10.00;;;5.03;;
68377;SDS011;55322;48.146;11.516;2023-06-26T02:34:25;10.43;;;5.13;;
68377;SDS011;55322;48.146;11.516;2023-06-26T02:36:50;10.20;;;5.27;;
68377;SDS011;55322;48.146;11.516;2023-06-26T02:39:15;9.70;;;4.83;;
68377;SDS011;55322;48.146;11.516;2023-06-26T02:41:41;10.40;;;4.90;;
68377;SDS011;55322;48.146;11.516;2023-06-26T02:44:06;9.90;;;5.10;;
68377;SDS011;55322;48.146;11.516;2023-06-26T02:46:32;10.40;;;4.60;;
68377;SDS011;55322;48.146;11.516;2023-06-26T02:48:58;10.13;;;5.15;;
68377;SDS011;55322;48.146;11.516;2023-06-26T02:51:24;10.18;;;4.72;;
68377;SDS011;55322;48.146;11.516;2023-06-26T02:53:49;10.87;;;4.90;;
68377;SDS011;55322;48.146;11.516;2023-06-26T02:56:14;12.03;;;5.43;;
68377;SDS011;55322;48.146;11.516;2023-06-26T02:58:40;11.87;;;5.80;;
68377;SDS011;55322;48.146;11.516;2023-06-26T03:01:05;8.77;;;4.60;;
68377;SDS011;55322;48.146;11.516;2023-06-26T03:03:30;11.47;;;5.70;;
68377;SDS011;55322;48.146;11.516;2023-06-26T03:05:55;9.57;;;4.90;;
68377;SDS011;55322;48.146;11.516;2023-06-26T03:08:21;11.18;;;5.10;;
68377;SDS011;55322;48.146;11.516;2023-06-26T03:10:47;10.23;;;5.07;;
68377;SDS011;55322;48.146;11.516;2023-06-26T03:13:12;12.03;;;5.33;;
68377;SDS011;55322;48.146;11.516;2023-06-26T03:15:37;10.23;;;4.60;;
68377;SDS011;55322;48.146;11.516;2023-06-26T03:18:03;10.57;;;5.28;;
68377;SDS011;55322;48.146;11.516;2023-06-26T03:20:28;11.00;;;5.53;;
68377;SDS011;55322;48.146;11.516;2023-06-26T03:22:54;10.53;;;5.57;;
68377;SDS011;55322;48.146;11.516;2023-06-26T03:25:19;10.00;;;4.97;;
68377;SDS011;55322;48.146;11.516;2023-06-26T03:27:44;10.33;;;5.37;;
68377;SDS011;55322;48.146;11.516;2023-06-26T03:30:10;10.67;;;5.40;;
68377;SDS011;55322;48.146;11.516;2023-06-26T03:32:36;10.57;;;5.32;;
68377;SDS011;55322;48.146;11.516;2023-06-26T03:35:01;10.83;;;5.57;;
68377;SDS011;55322;48.146;11.516;2023-06-26T03:37:28;11.07;;;5.55;;
68377;SDS011;55322;48.146;11.516;2023-06-26T03:39:53;11.53;;;5.30;;
68377;SDS011;55322;48.146;11.516;2023-06-26T03:42:19;12.25;;;5.43;;
68377;SDS011;55322;48.146;11.516;2023-06-26T03:44:44;9.67;;;5.23;;
68377;SDS011;55322;48.146;11.516;2023-06-26T03:47:09;11.20;;;5.50;;
68377;SDS011;55322;48.146;11.516;2023-06-26T03:49:35;10.33;;;5.40;;
68377;SDS011;55322;48.146;11.516;2023-06-26T03:52:00;11.73;;;5.10;;
68377;SDS011;55322;48.146;11.516;2023-06-26T03:54:25;10.67;;;5.27;;
68377;SDS011;55322;48.146;11.516;2023-06-26T03:56:51;10.40;;;5.33;;
68377;SDS011;55322;48.146;11.516;2023-06-26T03:59:16;12.67;;;5.83;;
68377;SDS011;55322;48.146;11.516;2023-06-26T04:01:42;11.15;;;4.88;;
68377;SDS011;55322;48.146;11.516;2023-06-26T04:04:07;10.70;;;5.37;;
68377;SDS011;55322;48.146;11.516;2023-06-26T04:06:32;12.60;;;4.90;;
68377;SDS011;55322;48.146;11.516;2023-06-26T04:08:58;11.03;;;5.03;;
68377;SDS011;55322;48.146;11.516;2023-06-26T04:11:24;12.00;;;5.40;;
68377;SDS011;55322;48.146;11.516;2023-06-26T04:13:50;10.32;;;5.18;;
68377;SDS011;55322;48.146;11.516;2023-06-26T04:16:15;11.60;;;5.00;;
68377;SDS011;55322;48.146;11.516;2023-06-26T04:18:40;9.83;;;4.90;;
68377;SDS011;55322;48.146;11.516;2023-06-26T04:21:07;10.77;;;5.57;;
68377;SDS011;55322;48.146;11.516;2023-06-26T04:23:34;10.23;;;5.47;;
68377;SDS011;55322;48.146;11.516;2023-06-26T04:26:00;9.75;;;4.93;;
68377;SDS011;55322;48.146;11.516;2023-06-26T04:28:25;10.30;;;5.57;;
68377;SDS011;55322;48.146;11.516;2023-06-26T04:30:50;11.13;;;5.18;;
68377;SDS011;55322;48.146;11.516;2023-06-26T04:33:16;10.50;;;5.13;;
68377;SDS011;55322;48.146;11.516;2023-06-26T04:35:41;10.17;;;5.33;;
68377;SDS011;55322;48.146;11.516;2023-06-26T04:38:09;10.63;;;5.40;;
68377;SDS011;55322;48.146;11.516;2023-06-26T04:40:35;10.00;;;5.27;;
68377;SDS011;55322;48.146;11.516;2023-06-26T04:43:00;11.80;;;5.23;;
68377;SDS011;55322;48.146;11.516;2023-06-26T04:45:25;10.87;;;5.73;;
68377;SDS011;55322;48.146;11.516;2023-06-26T04:47:51;11.07;;;5.23;;
68377;SDS011;55322;48.146;11.516;2023-06-26T04:50:16;9.67;;;4.97;;
68377;SDS011;55322;48.146;11.516;2023-06-26T04:52:43;11.53;;;5.47;;
68377;SDS011;55322;48.146;11.516;2023-06-26T04:55:09;10.93;;;5.30;;
68377;SDS011;55322;48.146;11.516;2023-06-26T04:57:34;10.27;;;5.00;;
68377;SDS011;55322;48.146;11.516;2023-06-26T05:00:00;12.13;;;5.40;;
68377;SDS011;55322;48.146;11.516;2023-06-26T05:02:25;10.57;;;5.20;;
68377;SDS011;55322;48.146;11.516;2023-06-26T05:04:51;12.40;;;5.53;;
68377;SDS011;55322;48.146;11.516;2023-06-26T05:07:17;10.43;;;5.20;;
68377;SDS011;55322;48.146;11.516;2023-06-26T05:09:42;9.87;;;5.47;;
68377;SDS011;55322;48.146;11.516;2023-06-26T05:12:07;11.83;;;5.30;;
68377;SDS011;55322;48.146;11.516;2023-06-26T05:14:33;11.40;;;5.25;;
68377;SDS011;55322;48.146;11.516;2023-06-26T05:16:58;11.57;;;5.40;;
68377;SDS011;55322;48.146;11.516;2023-06-26T05:19:23;10.20;;;5.47;;
68377;SDS011;55322;48.146;11.516;2023-06-26T05:21:49;10.17;;;5.40;;
68377;SDS011;55322;48.146;11.516;2023-06-26T05:24:16;12.65;;;5.70;;
68377;SDS011;55322;48.146;11.516;2023-06-26T05:26:42;11.73;;;5.10;;
68377;SDS011;55322;48.146;11.516;2023-06-26T05:29:07;10.93;;;5.60;;
68377;SDS011;55322;48.146;11.516;2023-06-26T05:31:33;10.30;;;5.07;;
68377;SDS011;55322;48.146;11.516;2023-06-26T05:34:02;9.73;;;5.03;;
68377;SDS011;55322;48.146;11.516;2023-06-26T05:36:28;9.80;;;5.03;;
68377;SDS011;55322;48.146;11.516;2023-06-26T05:38:56;11.63;;;5.20;;
68377;SDS011;55322;48.146;11.516;2023-06-26T05:41:22;10.10;;;4.93;;
68377;SDS011;55322;48.146;11.516;2023-06-26T05:43:47;10.15;;;4.97;;
68377;SDS011;55322;48.146;11.516;2023-06-26T05:46:13;9.47;;;4.90;;
68377;SDS011;55322;48.146;11.516;2023-06-26T05:48:38;10.67;;;5.33;;
68377;SDS011;55322;48.146;11.516;2023-06-26T05:51:04;10.93;;;5.50;;
68377;SDS011;55322;48.146;11.516;2023-06-26T05:53:30;9.93;;;4.97;;
68377;SDS011;55322;48.146;11.516;2023-06-26T05:55:55;10.40;;;5.25;;
68377;SDS011;55322;48.146;11.516;2023-06-26T05:58:21;11.63;;;5.37;;
68377;SDS011;55322;48.146;11.516;2023-06-26T06:00:49;9.88;;;5.30;;
68377;SDS011;55322;48.146;11.516;2023-06-26T06:03:14;9.97;;;5.03;;
68377;SDS011;55322;48.146;11.516;2023-06-26T06:05:39;8.87;;;4.80;;
68377;SDS011;55322;48.146;11.516;2023-06-26T06:08:05;10.97;;;5.30;;
68377;SDS011;55322;48.146;11.516;2023-06-26T06:10:30;9.68;;;5.00;;
68377;SDS011;55322;48.146;11.516;2023-06-26T06:12:55;11.60;;;5.20;;
68377;SDS011;55322;48.146;11.516;2023-06-26T06:15:21;11.20;;;5.20;;
68377;SDS011;55322;48.146;11.516;2023-06-26T06:17:46;9.93;;;5.20;;
68377;SDS011;55322;48.146;11.516;2023-06-26T06:20:11;9.03;;;4.90;;
68377;SDS011;55322;48.146;11.516;2023-06-26T06:22:37;10.97;;;5.17;;
68377;SDS011;55322;48.146;11.516;2023-06-26T06:25:02;9.93;;;5.47;;
68377;SDS011;55322;48.146;11.516;2023-06-26T06:27:27;11.50;;;5.32;;
68377;SDS011;55322;48.146;11.516;2023-06-26T06:29:53;9.60;;;5.17;;
68377;SDS011;55322;48.146;11.516;2023-06-26T06:32:18;9.93;;;5.30;;
68377;SDS011;55322;48.146;11.516;2023-06-26T06:34:43;10.93;;;5.30;;
68377;SDS011;55322;48.146;11.516;2023-06-26T06:37:09;11.33;;;4.70;;
68377;SDS011;55322;48.146;11.516;2023-06-26T06:39:34;11.33;;;5.50;;
68377;SDS011;55322;48.146;11.516;2023-06-26T06:41:59;12.13;;;4.97;;
68377;SDS011;55322;48.146;11.516;2023-06-26T06:44:25;9.80;;;5.00;;
68377;SDS011;55322;48.146;11.516;2023-06-26T06:46:50;10.43;;;4.70;;
68377;SDS011;55322;48.146;11.516;2023-06-26T06:49:15;9.80;;;4.90;;
68377;SDS011;55322;48.146;11.516;2023-06-26T06:51:41;11.27;;;4.87;;
68377;SDS011;55322;48.146;11.516;2023-06-26T06:54:06;9.67;;;4.97;;
68377;SDS011;55322;48.146;11.516;2023-06-26T06:56:31;8.10;;;4.53;;
68377;SDS011;55322;48.146;11.516;2023-06-26T06:58:57;9.33;;;5.73;;
68377;SDS011;55322;48.146;11.516;2023-06-26T07:01:22;8.43;;;4.60;;
68377;SDS011;55322;48.146;11.516;2023-06-26T07:03:47;9.65;;;4.70;;
68377;SDS011;55322;48.146;11.516;2023-06-26T07:06:12;9.67;;;4.73;;
68377;SDS011;55322;48.146;11.516;2023-06-26T07:08:38;8.70;;;4.67;;
68377;SDS011;55322;48.146;11.516;2023-06-26T07:11:03;9.00;;;4.70;;
68377;SDS011;55322;48.146;11.516;2023-06-26T07:13:29;10.80;;;4.73;;
68377;SDS011;55322;48.146;11.516;2023-06-26T07:15:54;8.30;;;4.70;;
68377;SDS011;55322;48.146;11.516;2023-06-26T07:18:19;8.52;;;4.38;;
68377;SDS011;55322;48.146;11.516;2023-06-26T07:20:45;9.60;;;4.87;;
68377;SDS011;55322;48.146;11.516;2023-06-26T07:23:10;10.67;;;5.50;;
68377;SDS011;55322;48.146;11.516;2023-06-26T07:25:36;9.77;;;4.83;;
68377;SDS011;55322;48.146;11.516;2023-06-26T07:28:02;9.55;;;5.03;;
68377;SDS011;55322;48.146;11.516;2023-06-26T07:30:27;8.47;;;4.67;;
68377;SDS011;55322;48.146;11.516;2023-06-26T07:32:53;10.65;;;5.15;;
68377;SDS011;55322;48.146;11.516;2023-06-26T07:35:18;9.03;;;4.83;;
68377;SDS011;55322;48.146;11.516;2023-06-26T07:37:44;17.30;;;5.10;;
68377;SDS011;55322;48.146;11.516;2023-06-26T07:40:09;9.43;;;5.00;;
68377;SDS011;55322;48.146;11.516;2023-06-26T07:42:35;10.50;;;5.43;;
68377;SDS011;55322;48.146;11.516;2023-06-26T07:45:01;14.02;;;4.95;;
68377;SDS011;55322;48.146;11.516;2023-06-26T07:47:26;11.63;;;5.27;;
68377;SDS011;55322;48.146;11.516;2023-06-26T07:49:52;11.20;;;5.00;;
68377;SDS011;55322;48.146;11.516;2023-06-26T07:52:18;9.70;;;5.60;;
68377;SDS011;55322;48.146;11.516;2023-06-26T07:54:43;8.55;;;4.95;;
68377;SDS011;55322;48.146;11.516;2023-06-26T07:57:09;9.73;;;5.03;;
68377;SDS011;55322;48.146;11.516;2023-06-26T07:59:36;9.77;;;5.03;;
68377;SDS011;55322;48.146;11.516;2023-06-26T08:02:01;9.07;;;4.77;;
68377;SDS011;55322;48.146;11.516;2023-06-26T08:04:27;9.25;;;5.05;;
68377;SDS011;55322;48.146;11.516;2023-06-26T08:06:55;9.88;;;5.20;;
68377;SDS011;55322;48.146;11.516;2023-06-26T08:09:23;9.10;;;5.33;;
68377;SDS011;55322;48.146;11.516;2023-06-26T08:11:50;9.95;;;5.10;;
68377;SDS011;55322;48.146;11.516;2023-06-26T08:14:16;9.80;;;5.70;;
68377;SDS011;55322;48.146;11.516;2023-06-26T08:16:42;9.10;;;5.40;;
68377;SDS011;55322;48.146;11.516;2023-06-26T08:19:12;10.13;;;5.05;;
68377;SDS011;55322;48.146;11.516;2023-06-26T08:21:39;12.40;;;5.10;;
68377;SDS011;55322;48.146;11.516;2023-06-26T08:24:08;9.77;;;5.32;;
68377;SDS011;55322;48.146;11.516;2023-06-26T08:26:34;9.37;;;5.63;;
68377;SDS011;55322;48.146;11.516;2023-06-26T08:28:59;10.13;;;5.22;;
68377;SDS011;55322;48.146;11.516;2023-06-26T08:31:25;8.63;;;5.20;;
68377;SDS011;55322;48.146;11.516;2023-06-26T08:33:50;9.47;;;5.20;;
68377;SDS011;55322;48.146;11.516;2023-06-26T08:36:15;9.47;;;5.63;;
68377;SDS011;55322;48.146;11.516;2023-06-26T08:38:41;10.20;;;5.50;;
68377;SDS011;55322;48.146;11.516;2023-06-26T08:41:07;11.40;;;5.65;;
68377;SDS011;55322;48.146;11.516;2023-06-26T08:43:33;8.77;;;5.10;;
68377;SDS011;55322;48.146;11.516;2023-06-26T08:45:59;11.50;;;7.75;;
68377;SDS011;55322;48.146;11.516;2023-06-26T08:48:25;9.20;;;5.55;;
68377;SDS011;55322;48.146;11.516;2023-06-26T08:50:52;9.87;;;5.70;;
68377;SDS011;55322;48.146;11.516;2023-06-26T08:53:37;8.90;;;4.75;;
68377;SDS011;55322;48.146;11.516;2023-06-26T08:56:08;11.02;;;5.05;;
68377;SDS011;55322;48.146;11.516;2023-06-26T08:58:35;8.70;;;4.83;;
68377;SDS011;55322;48.146;11.516;2023-06-26T09:01:02;12.88;;;5.05;;
68377;SDS011;55322;48.146;11.516;2023-06-26T09:03:29;11.07;;;4.85;;
68377;SDS011;55322;48.146;11.516;2023-06-26T09:05:55;8.27;;;5.10;;
68377;SDS011;55322;48.146;11.516;2023-06-26T09:08:21;9.43;;;4.83;;
68377;SDS011;55322;48.146;11.516;2023-06-26T09:10:46;8.17;;;5.00;;
68377;SDS011;55322;48.146;11.516;2023-06-26T09:13:11;9.07;;;5.17;;
68377;SDS011;55322;48.146;11.516;2023-06-26T09:15:37;8.93;;;5.00;;
68377;SDS011;55322;48.146;11.516;2023-06-26T09:18:04;12.90;;;4.63;;
68377;SDS011;55322;48.146;11.516;2023-06-26T09:20:30;12.40;;;4.95;;
68377;SDS011;55322;48.146;11.516;2023-06-26T09:22:57;8.35;;;4.45;;
68377;SDS011;55322;48.146;11.516;2023-06-26T09:25:23;57.27;;;6.33;;
68377;SDS011;55322;48.146;11.516;2023-06-26T09:27:49;9.98;;;4.25;;
68377;SDS011;55322;48.146;11.516;2023-06-26T09:30:16;8.73;;;4.57;;
68377;SDS011;55322;48.146;11.516;2023-06-26T09:32:42;11.80;;;4.40;;
68377;SDS011;55322;48.146;11.516;2023-06-26T09:35:07;8.77;;;4.30;;
68377;SDS011;55322;48.146;11.516;2023-06-26T09:37:34;7.27;;;3.80;;
68377;SDS011;55322;48.146;11.516;2023-06-26T09:40:00;7.97;;;4.00;;
68377;SDS011;55322;48.146;11.516;2023-06-26T09:42:25;7.53;;;3.93;;
68377;SDS011;55322;48.146;11.516;2023-06-26T09:44:50;8.20;;;4.30;;
68377;SDS011;55322;48.146;11.516;2023-06-26T09:47:16;7.67;;;3.90;;
68377;SDS011;55322;48.146;11.516;2023-06-26T09:49:43;7.45;;;4.13;;
68377;SDS011;55322;48.146;11.516;2023-06-26T09:52:09;7.60;;;3.80;;
68377;SDS011;55322;48.146;11.516;2023-06-26T09:54:38;7.50;;;3.77;;
68377;SDS011;55322;48.146;11.516;2023-06-26T09:57:07;10.55;;;4.03;;
68377;SDS011;55322;48.146;11.516;2023-06-26T09:59:43;10.90;;;4.00;;
68377;SDS011;55322;48.146;11.516;2023-06-26T10:02:10;8.63;;;3.47;;
68377;SDS011;55322;48.146;11.516;2023-06-26T10:04:36;7.53;;;3.72;;
68377;SDS011;55322;48.146;11.516;2023-06-26T10:07:06;7.32;;;3.65;;
68377;SDS011;55322;48.146;11.516;2023-06-26T10:09:37;8.95;;;3.90;;
68377;SDS011;55322;48.146;11.516;2023-06-26T10:12:06;11.37;;;3.67;;
68377;SDS011;55322;48.146;11.516;2023-06-26T10:14:34;8.75;;;3.50;;
68377;SDS011;55322;48.146;11.516;2023-06-26T10:17:03;7.07;;;3.42;;
68377;SDS011;55322;48.146;11.516;2023-06-26T10:19:31;8.48;;;3.60;;
68377;SDS011;55322;48.146;11.516;2023-06-26T10:21:58;7.75;;;3.65;;
68377;SDS011;55322;48.146;11.516;2023-06-26T10:24:24;8.10;;;3.80;;
68377;SDS011;55322;48.146;11.516;2023-06-26T10:26:55;8.20;;;3.67;;
68377;SDS011;55322;48.146;11.516;2023-06-26T10:29:24;10.20;;;4.32;;
68377;SDS011;55322;48.146;11.516;2023-06-26T10:31:51;8.55;;;3.58;;
68377;SDS011;55322;48.146;11.516;2023-06-26T10:34:19;6.82;;;3.35;;
68377;SDS011;55322;48.146;11.516;2023-06-26T10:36:44;8.60;;;3.70;;
68377;SDS011;55322;48.146;11.516;2023-06-26T10:39:12;9.02;;;3.88;;
68377;SDS011;55322;48.146;11.516;2023-06-26T10:41:38;8.20;;;3.60;;
68377;SDS011;55322;48.146;11.516;2023-06-26T10:44:10;9.48;;;3.60;;
68377;SDS011;55322;48.146;11.516;2023-06-26T10:49:27;8.35;;;3.92;;
68377;SDS011;55322;48.146;11.516;2023-06-26T10:51:54;9.63;;;4.00;;
68377;SDS011;55322;48.146;11.516;2023-06-26T10:54:22;7.03;;;3.70;;
68377;SDS011;55322;48.146;11.516;2023-06-26T10:56:49;7.40;;;4.18;;
68377;SDS011;55322;48.146;11.516;2023-06-26T11:01:43;8.03;;;3.73;;
68377;SDS011;55322;48.146;11.516;2023-06-26T11:04:10;7.55;;;3.90;;
68377;SDS011;55322;48.146;11.516;2023-06-26T11:06:37;7.05;;;3.67;;
68377;SDS011;55322;48.146;11.516;2023-06-26T11:12:16;11.02;;;3.47;;
68377;SDS011;55322;48.146;11.516;2023-06-26T11:14:34;7.77;;;3.80;;
68377;SDS011;55322;48.146;11.516;2023-06-26T11:17:02;8.88;;;3.72;;
68377;SDS011;55322;48.146;11.516;2023-06-26T11:19:28;9.27;;;3.90;;
68377;SDS011;55322;48.146;11.516;2023-06-26T11:21:57;9.35;;;4.10;;
68377;SDS011;55322;48.146;11.516;2023-06-26T11:24:23;7.38;;;3.97;;
68377;SDS011;55322;48.146;11.516;2023-06-26T11:26:48;10.43;;;3.97;;
68377;SDS011;55322;48.146;11.516;2023-06-26T11:29:14;8.27;;;4.30;;
68377;SDS011;55322;48.146;11.516;2023-06-26T11:31:40;7.80;;;4.20;;
68377;SDS011;55322;48.146;11.516;2023-06-26T11:34:10;8.43;;;4.18;;
68377;SDS011;55322;48.146;11.516;2023-06-26T11:36:40;9.05;;;4.55;;
68377;SDS011;55322;48.146;11.516;2023-06-26T11:39:07;8.50;;;4.55;;
68377;SDS011;55322;48.146;11.516;2023-06-26T11:41:34;8.70;;;4.40;;
68377;SDS011;55322;48.146;11.516;2023-06-26T11:44:01;7.35;;;4.28;;
68377;SDS011;55322;48.146;11.516;2023-06-26T11:46:28;7.30;;;4.22;;
68377;SDS011;55322;48.146;11.516;2023-06-26T11:48:53;7.33;;;4.03;;
68377;SDS011;55322;48.146;11.516;2023-06-26T11:51:19;10.32;;;4.60;;
68377;SDS011;55322;48.146;11.516;2023-06-26T11:53:45;9.38;;;4.70;;
68377;SDS011;55322;48.146;11.516;2023-06-26T11:56:13;9.53;;;4.20;;
68377;SDS011;55322;48.146;11.516;2023-06-26T11:58:55;7.43;;;4.20;;
68377;SDS011;55322;48.146;11.516;2023-06-26T12:01:22;8.73;;;4.50;;
68377;SDS011;55322;48.146;11.516;2023-06-26T12:03:49;8.50;;;4.55;;
68377;SDS011;55322;48.146;11.516;2023-06-26T12:06:15;8.10;;;4.70;;
68377;SDS011;55322;48.146;11.516;2023-06-26T12:08:41;9.90;;;5.40;;
68377;SDS011;55322;48.146;11.516;2023-06-26T12:11:07;9.05;;;4.10;;
68377;SDS011;55322;48.146;11.516;2023-06-26T12:13:32;8.00;;;4.50;;
68377;SDS011;55322;48.146;11.516;2023-06-26T12:15:58;8.60;;;4.50;;
68377;SDS011;55322;48.146;11.516;2023-06-26T12:18:24;8.40;;;4.33;;
68377;SDS011;55322;48.146;11.516;2023-06-26T12:20:50;7.72;;;4.20;;
68377;SDS011;55322;48.146;11.516;2023-06-26T12:23:16;8.52;;;4.60;;
68377;SDS011;55322;48.146;11.516;2023-06-26T12:25:42;7.77;;;4.13;;
68377;SDS011;55322;48.146;11.516;2023-06-26T12:28:17;10.35;;;4.60;;
68377;SDS011;55322;48.146;11.516;2023-06-26T12:30:46;9.30;;;4.80;;
68377;SDS011;55322;48.146;11.516;2023-06-26T12:33:14;7.93;;;4.50;;
68377;SDS011;55322;48.146;11.516;2023-06-26T12:35:39;9.50;;;4.47;;
68377;SDS011;55322;48.146;11.516;2023-06-26T12:38:07;9.37;;;4.80;;
68377;SDS011;55322;48.146;11.516;2023-06-26T12:40:35;9.98;;;5.03;;
68377;SDS011;55322;48.146;11.516;2023-06-26T12:43:11;9.57;;;4.75;;
68377;SDS011;55322;48.146;11.516;2023-06-26T12:45:40;8.63;;;4.63;;
68377;SDS011;55322;48.146;11.516;2023-06-26T12:48:12;8.27;;;4.80;;
68377;SDS011;55322;48.146;11.516;2023-06-26T12:50:44;8.05;;;4.85;;
68377;SDS011;55322;48.146;11.516;2023-06-26T12:53:13;71.00;;;7.78;;
68377;SDS011;55322;48.146;11.516;2023-06-26T12:55:38;11.80;;;4.60;;
68377;SDS011;55322;48.146;11.516;2023-06-26T12:58:04;9.83;;;4.70;;
68377;SDS011;55322;48.146;11.516;2023-06-26T13:00:29;10.30;;;4.50;;
68377;SDS011;55322;48.146;11.516;2023-06-26T13:02:56;9.32;;;4.50;;
68377;SDS011;55322;48.146;11.516;2023-06-26T13:05:23;8.90;;;4.33;;
68377;SDS011;55322;48.146;11.516;2023-06-26T13:07:49;8.38;;;4.50;;
68377;SDS011;55322;48.146;11.516;2023-06-26T13:10:14;9.77;;;4.80;;
68377;SDS011;55322;48.146;11.516;2023-06-26T13:12:39;9.60;;;5.17;;
68377;SDS011;55322;48.146;11.516;2023-06-26T13:15:05;12.53;;;4.80;;
68377;SDS011;55322;48.146;11.516;2023-06-26T13:17:30;8.20;;;4.60;;
68377;SDS011;55322;48.146;11.516;2023-06-26T13:19:56;7.53;;;4.57;;
68377;SDS011;55322;48.146;11.516;2023-06-26T13:22:22;8.57;;;4.97;;
68377;SDS011;55322;48.146;11.516;2023-06-26T13:24:48;8.73;;;4.77;;
68377;SDS011;55322;48.146;11.516;2023-06-26T13:27:13;8.32;;;4.88;;
68377;SDS011;55322;48.146;11.516;2023-06-26T13:29:39;8.43;;;5.33;;
68377;SDS011;55322;48.146;11.516;2023-06-26T13:32:04;11.30;;;5.27;;
68377;SDS011;55322;48.146;11.516;2023-06-26T13:34:30;9.33;;;4.90;;
68377;SDS011;55322;48.146;11.516;2023-06-26T13:36:56;11.90;;;5.38;;
68377;SDS011;55322;48.146;11.516;2023-06-26T13:39:21;9.83;;;5.03;;
68377;SDS011;55322;48.146;11.516;2023-06-26T13:41:47;9.13;;;4.93;;
68377;SDS011;55322;48.146;11.516;2023-06-26T13:44:12;14.30;;;4.97;;
68377;SDS011;55322;48.146;11.516;2023-06-26T13:46:37;10.33;;;5.10;;
68377;SDS011;55322;48.146;11.516;2023-06-26T13:49:02;8.63;;;5.00;;
68377;SDS011;55322;48.146;11.516;2023-06-26T13:51:28;10.97;;;5.03;;
68377;SDS011;55322;48.146;11.516;2023-06-26T13:53:53;10.03;;;5.37;;
68377;SDS011;55322;48.146;11.516;2023-06-26T13:56:20;11.55;;;5.20;;
68377;SDS011;55322;48.146;11.516;2023-06-26T13:58:45;9.93;;;5.40;;
68377;SDS011;55322;48.146;11.516;2023-06-26T14:01:10;9.47;;;5.00;;
68377;SDS011;55322;48.146;11.516;2023-06-26T14:03:36;9.67;;;5.03;;
68377;SDS011;55322;48.146;11.516;2023-06-26T14:06:01;13.60;;;5.20;;
68377;SDS011;55322;48.146;11.516;2023-06-26T14:08:26;11.82;;;5.47;;
68377;SDS011;55322;48.146;11.516;2023-06-26T14:10:52;9.50;;;5.30;;
68377;SDS011;55322;48.146;11.516;2023-06-26T14:13:17;12.83;;;5.13;;
68377;SDS011;55322;48.146;11.516;2023-06-26T14:15:42;9.10;;;5.13;;
68377;SDS011;55322;48.146;11.516;2023-06-26T14:18:08;8.40;;;4.93;;
68377;SDS011;55322;48.146;11.516;2023-06-26T14:20:33;17.47;;;5.20;;
68377;SDS011;55322;48.146;11.516;2023-06-26T14:23:00;9.60;;;4.73;;
68377;SDS011;55322;48.146;11.516;2023-06-26T14:25:26;8.73;;;4.63;;
68377;SDS011;55322;48.146;11.516;2023-06-26T14:27:53;9.52;;;4.88;;
68377;SDS011;55322;48.146;11.516;2023-06-26T14:30:19;13.18;;;5.35;;
68377;SDS011;55322;48.146;11.516;2023-06-26T14:32:44;8.93;;;5.23;;
68377;SDS011;55322;48.146;11.516;2023-06-26T14:35:10;8.83;;;5.40;;
68377;SDS011;55322;48.146;11.516;2023-06-26T14:37:35;13.87;;;5.83;;
68377;SDS011;55322;48.146;11.516;2023-06-26T14:40:01;11.68;;;5.53;;
68377;SDS011;55322;48.146;11.516;2023-06-26T14:42:26;10.07;;;5.27;;